Archival Weather

Ronald Reagan Washington Ntl

Arlington, Virginia (KDCA)

Report from: Sunday, March 19, 2023 9:52 AM EDT
Current time: Saturday, July 13, 2024 10:27 PM EDT

Current weather – Weather history – Daily summaries
Weather forecast

Temperature-0.6°C (30.9°F)
Wind chill-6.0°C (21.1°F)
Dew point-15.6°C (3.9°F)
Winds 11 kts (5.7 m/s, 12.7 mph) West-Northwest (300°)
Wind gusts 24 kts (12.3 m/s, 27.6 mph)
Visibility10 mi. (16.1 km)
Clouds Sky clear
Altimeter30.21 in.Hg (1023 mB)
Relative humidity31 %
Density altitude-2,198 ft. (-670 m)
Sea-level pressure102.3 kPa (1023 mB, 30.20 in.Hg)
Remarks System requires maintenance
Automated weather observing station with precipitation discriminator
Flight conditions Visual Meteorological Conditions
Raw dataKDCA 191352Z 30011G24KT 10SM CLR M01/M16 A3021 RMK AO2 SLP228 T10061156 $
An error has occurred. This application may no longer respond until reloaded. Reload 🗙